sensor_id;sensor_type;location;lat;lon;timestamp;temperature;humidity
12959;DHT22;6544;51.666;6.634;2022-12-29T00:00:14;11.20;99.90
12959;DHT22;6544;51.666;6.634;2022-12-29T00:02:41;11.20;99.90
12959;DHT22;6544;51.666;6.634;2022-12-29T00:05:08;11.30;99.90
12959;DHT22;6544;51.666;6.634;2022-12-29T00:07:35;11.30;99.90
12959;DHT22;6544;51.666;6.634;2022-12-29T00:10:05;11.30;99.90
12959;DHT22;6544;51.666;6.634;2022-12-29T00:12:32;11.30;99.90
12959;DHT22;6544;51.666;6.634;2022-12-29T00:15:13;11.30;99.90
12959;DHT22;6544;51.666;6.634;2022-12-29T00:17:57;11.30;99.90
12959;DHT22;6544;51.666;6.634;2022-12-29T00:20:24;11.30;1.00
12959;DHT22;6544;51.666;6.634;2022-12-29T00:23:08;11.30;1.00
12959;DHT22;6544;51.666;6.634;2022-12-29T00:25:54;11.20;1.00
12959;DHT22;6544;51.666;6.634;2022-12-29T00:28:39;11.20;1.00
12959;DHT22;6544;51.666;6.634;2022-12-29T00:31:23;11.10;99.90
12959;DHT22;6544;51.666;6.634;2022-12-29T00:34:10;11.00;99.90
12959;DHT22;6544;51.666;6.634;2022-12-29T00:36:55;11.00;1.00
12959;DHT22;6544;51.666;6.634;2022-12-29T00:39:22;10.90;1.00
12959;DHT22;6544;51.666;6.634;2022-12-29T00:42:09;10.90;72.20
12959;DHT22;6544;51.666;6.634;2022-12-29T00:44:59;10.90;99.90
12959;DHT22;6544;51.666;6.634;2022-12-29T00:47:26;10.90;99.90
12959;DHT22;6544;51.666;6.634;2022-12-29T00:49:52;10.90;99.90
12959;DHT22;6544;51.666;6.634;2022-12-29T00:52:18;10.90;99.90
12959;DHT22;6544;51.666;6.634;2022-12-29T00:54:45;11.00;99.90
12959;DHT22;6544;51.666;6.634;2022-12-29T00:57:13;11.00;99.90
12959;DHT22;6544;51.666;6.634;2022-12-29T00:59:41;11.00;96.50
12959;DHT22;6544;51.666;6.634;2022-12-29T01:02:08;11.00;96.90
12959;DHT22;6544;51.666;6.634;2022-12-29T01:04:36;11.00;99.90
12959;DHT22;6544;51.666;6.634;2022-12-29T01:07:03;11.00;99.90
12959;DHT22;6544;51.666;6.634;2022-12-29T01:09:31;11.00;99.90
12959;DHT22;6544;51.666;6.634;2022-12-29T01:12:17;11.00;99.90
12959;DHT22;6544;51.666;6.634;2022-12-29T01:15:06;11.00;99.90
12959;DHT22;6544;51.666;6.634;2022-12-29T01:17:33;11.00;99.90
12959;DHT22;6544;51.666;6.634;2022-12-29T01:20:00;11.00;99.90
12959;DHT22;6544;51.666;6.634;2022-12-29T01:22:27;11.00;99.90
12959;DHT22;6544;51.666;6.634;2022-12-29T01:24:54;11.00;99.90
12959;DHT22;6544;51.666;6.634;2022-12-29T01:27:22;11.00;99.90
12959;DHT22;6544;51.666;6.634;2022-12-29T01:29:49;11.00;99.90
12959;DHT22;6544;51.666;6.634;2022-12-29T01:32:16;11.00;99.90
12959;DHT22;6544;51.666;6.634;2022-12-29T01:34:43;11.00;99.90
12959;DHT22;6544;51.666;6.634;2022-12-29T01:37:10;11.00;99.90
12959;DHT22;6544;51.666;6.634;2022-12-29T01:39:37;11.00;78.20
12959;DHT22;6544;51.666;6.634;2022-12-29T01:42:04;11.10;27.70
12959;DHT22;6544;51.666;6.634;2022-12-29T01:44:57;11.10;1.00
12959;DHT22;6544;51.666;6.634;2022-12-29T01:47:31;11.10;1.00
12959;DHT22;6544;51.666;6.634;2022-12-29T01:50:03;11.10;1.00
12959;DHT22;6544;51.666;6.634;2022-12-29T01:52:32;11.10;1.00
12959;DHT22;6544;51.666;6.634;2022-12-29T01:55:02;11.10;99.90
12959;DHT22;6544;51.666;6.634;2022-12-29T01:57:32;11.20;1.00
12959;DHT22;6544;51.666;6.634;2022-12-29T02:00:05;11.20;1.00
12959;DHT22;6544;51.666;6.634;2022-12-29T02:02:34;11.20;1.00
12959;DHT22;6544;51.666;6.634;2022-12-29T02:05:05;11.30;1.00
12959;DHT22;6544;51.666;6.634;2022-12-29T02:07:33;11.30;1.00
12959;DHT22;6544;51.666;6.634;2022-12-29T02:10:01;11.30;1.00
12959;DHT22;6544;51.666;6.634;2022-12-29T02:12:29;11.40;1.00
12959;DHT22;6544;51.666;6.634;2022-12-29T02:15:03;11.30;1.00
12959;DHT22;6544;51.666;6.634;2022-12-29T02:17:45;11.40;1.00
12959;DHT22;6544;51.666;6.634;2022-12-29T02:23:47;11.40;1.00
12959;DHT22;6544;51.666;6.634;2022-12-29T02:26:30;11.40;1.00
12959;DHT22;6544;51.666;6.634;2022-12-29T02:29:26;11.50;99.90
12959;DHT22;6544;51.666;6.634;2022-12-29T02:32:00;11.50;99.90
12959;DHT22;6544;51.666;6.634;2022-12-29T02:34:36;11.40;99.90
12959;DHT22;6544;51.666;6.634;2022-12-29T02:37:10;11.50;1.00
12959;DHT22;6544;51.666;6.634;2022-12-29T02:39:44;11.50;1.00
12959;DHT22;6544;51.666;6.634;2022-12-29T02:42:21;11.50;1.00
12959;DHT22;6544;51.666;6.634;2022-12-29T02:44:55;11.50;1.00
12959;DHT22;6544;51.666;6.634;2022-12-29T02:47:33;11.50;1.00
12959;DHT22;6544;51.666;6.634;2022-12-29T02:50:06;11.50;1.00
12959;DHT22;6544;51.666;6.634;2022-12-29T02:52:38;11.50;1.00
12959;DHT22;6544;51.666;6.634;2022-12-29T02:55:10;11.50;1.00
12959;DHT22;6544;51.666;6.634;2022-12-29T02:57:37;11.60;99.90
12959;DHT22;6544;51.666;6.634;2022-12-29T03:00:07;11.60;99.90
12959;DHT22;6544;51.666;6.634;2022-12-29T03:03:08;11.60;99.90
12959;DHT22;6544;51.666;6.634;2022-12-29T03:08:49;11.70;99.90
12959;DHT22;6544;51.666;6.634;2022-12-29T03:11:19;11.60;99.90
12959;DHT22;6544;51.666;6.634;2022-12-29T03:14:10;11.60;99.90
12959;DHT22;6544;51.666;6.634;2022-12-29T03:17:01;11.70;99.90
12959;DHT22;6544;51.666;6.634;2022-12-29T03:19:35;11.60;99.90
12959;DHT22;6544;51.666;6.634;2022-12-29T03:22:04;11.60;99.90
12959;DHT22;6544;51.666;6.634;2022-12-29T03:24:52;11.60;99.90
12959;DHT22;6544;51.666;6.634;2022-12-29T03:27:22;11.60;99.90
12959;DHT22;6544;51.666;6.634;2022-12-29T03:29:54;11.60;99.90
12959;DHT22;6544;51.666;6.634;2022-12-29T03:32:23;11.60;99.90
12959;DHT22;6544;51.666;6.634;2022-12-29T03:34:53;11.50;99.90
12959;DHT22;6544;51.666;6.634;2022-12-29T03:37:25;11.60;99.90
12959;DHT22;6544;51.666;6.634;2022-12-29T03:39:52;11.50;99.90
12959;DHT22;6544;51.666;6.634;2022-12-29T03:42:22;11.60;99.90
12959;DHT22;6544;51.666;6.634;2022-12-29T03:44:53;11.50;99.90
12959;DHT22;6544;51.666;6.634;2022-12-29T03:47:20;11.50;99.90
12959;DHT22;6544;51.666;6.634;2022-12-29T03:49:47;11.50;99.90
12959;DHT22;6544;51.666;6.634;2022-12-29T03:52:16;11.40;1.00
12959;DHT22;6544;51.666;6.634;2022-12-29T03:54:43;11.30;1.00
12959;DHT22;6544;51.666;6.634;2022-12-29T03:57:10;11.30;1.00
12959;DHT22;6544;51.666;6.634;2022-12-29T03:59:37;11.20;1.00
12959;DHT22;6544;51.666;6.634;2022-12-29T04:02:04;11.10;1.00
12959;DHT22;6544;51.666;6.634;2022-12-29T04:04:31;10.90;1.00
12959;DHT22;6544;51.666;6.634;2022-12-29T04:06:58;10.80;1.00
12959;DHT22;6544;51.666;6.634;2022-12-29T04:09:26;10.80;1.00
12959;DHT22;6544;51.666;6.634;2022-12-29T04:11:53;10.70;11.20
12959;DHT22;6544;51.666;6.634;2022-12-29T04:14:20;10.70;99.90
12959;DHT22;6544;51.666;6.634;2022-12-29T04:16:46;10.60;1.00
12959;DHT22;6544;51.666;6.634;2022-12-29T04:19:13;10.60;1.00
12959;DHT22;6544;51.666;6.634;2022-12-29T04:21:40;10.50;2.90
12959;DHT22;6544;51.666;6.634;2022-12-29T04:24:07;10.50;1.00
12959;DHT22;6544;51.666;6.634;2022-12-29T04:26:35;10.40;99.90
12959;DHT22;6544;51.666;6.634;2022-12-29T04:29:02;10.40;1.00
12959;DHT22;6544;51.666;6.634;2022-12-29T04:31:29;10.40;27.10
12959;DHT22;6544;51.666;6.634;2022-12-29T04:33:56;10.40;99.90
12959;DHT22;6544;51.666;6.634;2022-12-29T04:36:23;10.30;1.00
12959;DHT22;6544;51.666;6.634;2022-12-29T04:38:50;10.40;1.00
12959;DHT22;6544;51.666;6.634;2022-12-29T04:41:17;10.30;1.00
12959;DHT22;6544;51.666;6.634;2022-12-29T04:43:45;10.30;99.90
12959;DHT22;6544;51.666;6.634;2022-12-29T04:46:12;10.30;26.00
12959;DHT22;6544;51.666;6.634;2022-12-29T04:48:39;10.30;1.00
12959;DHT22;6544;51.666;6.634;2022-12-29T04:51:05;10.40;1.00
12959;DHT22;6544;51.666;6.634;2022-12-29T04:53:32;10.40;1.00
12959;DHT22;6544;51.666;6.634;2022-12-29T04:55:59;10.30;1.00
12959;DHT22;6544;51.666;6.634;2022-12-29T04:58:26;10.30;99.90
12959;DHT22;6544;51.666;6.634;2022-12-29T05:00:54;10.30;73.60
12959;DHT22;6544;51.666;6.634;2022-12-29T05:03:21;10.40;99.90
12959;DHT22;6544;51.666;6.634;2022-12-29T05:05:48;10.30;99.90
12959;DHT22;6544;51.666;6.634;2022-12-29T05:08:15;10.30;99.90
12959;DHT22;6544;51.666;6.634;2022-12-29T05:10:44;10.30;99.90
12959;DHT22;6544;51.666;6.634;2022-12-29T05:13:12;10.30;99.90
12959;DHT22;6544;51.666;6.634;2022-12-29T05:15:39;10.30;99.90
12959;DHT22;6544;51.666;6.634;2022-12-29T05:18:07;10.20;99.90
12959;DHT22;6544;51.666;6.634;2022-12-29T05:20:34;10.20;99.90
12959;DHT22;6544;51.666;6.634;2022-12-29T05:23:00;10.20;1.00
12959;DHT22;6544;51.666;6.634;2022-12-29T05:25:27;10.20;1.00
12959;DHT22;6544;51.666;6.634;2022-12-29T05:27:54;10.30;1.00
12959;DHT22;6544;51.666;6.634;2022-12-29T05:30:21;10.20;1.00
12959;DHT22;6544;51.666;6.634;2022-12-29T05:32:48;10.20;1.00
12959;DHT22;6544;51.666;6.634;2022-12-29T05:35:16;10.20;99.90
12959;DHT22;6544;51.666;6.634;2022-12-29T05:37:43;10.20;99.90
12959;DHT22;6544;51.666;6.634;2022-12-29T05:40:11;10.20;99.90
12959;DHT22;6544;51.666;6.634;2022-12-29T05:42:38;10.20;99.90
12959;DHT22;6544;51.666;6.634;2022-12-29T05:45:06;10.10;99.90
12959;DHT22;6544;51.666;6.634;2022-12-29T05:47:33;10.10;99.90
12959;DHT22;6544;51.666;6.634;2022-12-29T05:50:00;10.10;99.90
12959;DHT22;6544;51.666;6.634;2022-12-29T05:52:28;10.10;99.90
12959;DHT22;6544;51.666;6.634;2022-12-29T05:54:55;10.10;1.00
12959;DHT22;6544;51.666;6.634;2022-12-29T05:57:22;10.10;1.00
12959;DHT22;6544;51.666;6.634;2022-12-29T05:59:49;10.10;1.00
12959;DHT22;6544;51.666;6.634;2022-12-29T06:02:16;10.10;1.00
12959;DHT22;6544;51.666;6.634;2022-12-29T06:04:42;10.10;1.00
12959;DHT22;6544;51.666;6.634;2022-12-29T06:07:09;10.20;1.00
12959;DHT22;6544;51.666;6.634;2022-12-29T06:09:38;10.20;1.00
12959;DHT22;6544;51.666;6.634;2022-12-29T06:12:05;10.10;1.00
12959;DHT22;6544;51.666;6.634;2022-12-29T06:14:32;10.20;1.00
12959;DHT22;6544;51.666;6.634;2022-12-29T06:16:59;10.10;1.00
12959;DHT22;6544;51.666;6.634;2022-12-29T06:19:26;10.20;1.00
12959;DHT22;6544;51.666;6.634;2022-12-29T06:21:53;10.10;99.90
12959;DHT22;6544;51.666;6.634;2022-12-29T06:24:20;10.10;99.90
12959;DHT22;6544;51.666;6.634;2022-12-29T06:26:48;10.20;99.90
12959;DHT22;6544;51.666;6.634;2022-12-29T06:29:15;10.10;99.90
12959;DHT22;6544;51.666;6.634;2022-12-29T06:31:43;10.10;99.90
12959;DHT22;6544;51.666;6.634;2022-12-29T06:34:11;10.20;95.00
12959;DHT22;6544;51.666;6.634;2022-12-29T06:36:38;10.20;1.00
12959;DHT22;6544;51.666;6.634;2022-12-29T06:39:04;10.20;1.00
12959;DHT22;6544;51.666;6.634;2022-12-29T06:41:31;10.30;1.00
12959;DHT22;6544;51.666;6.634;2022-12-29T06:44:00;10.20;1.00
12959;DHT22;6544;51.666;6.634;2022-12-29T06:46:26;10.20;1.00
12959;DHT22;6544;51.666;6.634;2022-12-29T06:48:53;10.20;1.00
12959;DHT22;6544;51.666;6.634;2022-12-29T06:51:20;10.10;1.00
12959;DHT22;6544;51.666;6.634;2022-12-29T06:53:47;10.20;1.00
12959;DHT22;6544;51.666;6.634;2022-12-29T06:56:14;10.10;1.00
12959;DHT22;6544;51.666;6.634;2022-12-29T06:58:41;10.10;1.00
12959;DHT22;6544;51.666;6.634;2022-12-29T07:01:09;10.10;99.90
12959;DHT22;6544;51.666;6.634;2022-12-29T07:03:36;10.10;99.90
12959;DHT22;6544;51.666;6.634;2022-12-29T07:06:03;10.10;99.90
12959;DHT22;6544;51.666;6.634;2022-12-29T07:08:31;10.10;99.90
12959;DHT22;6544;51.666;6.634;2022-12-29T07:10:58;10.10;99.90
12959;DHT22;6544;51.666;6.634;2022-12-29T07:13:25;10.10;95.40
12959;DHT22;6544;51.666;6.634;2022-12-29T07:15:51;10.20;61.20
12959;DHT22;6544;51.666;6.634;2022-12-29T07:18:20;10.10;96.90
12959;DHT22;6544;51.666;6.634;2022-12-29T07:20:46;10.10;99.90
12959;DHT22;6544;51.666;6.634;2022-12-29T07:23:13;10.10;98.90
12959;DHT22;6544;51.666;6.634;2022-12-29T07:25:40;10.20;99.90
12959;DHT22;6544;51.666;6.634;2022-12-29T07:28:07;10.10;99.90
12959;DHT22;6544;51.666;6.634;2022-12-29T07:30:36;10.20;80.00
12959;DHT22;6544;51.666;6.634;2022-12-29T07:33:04;10.10;99.90
12959;DHT22;6544;51.666;6.634;2022-12-29T07:35:33;10.20;67.80
12959;DHT22;6544;51.666;6.634;2022-12-29T07:38:00;10.20;23.20
12959;DHT22;6544;51.666;6.634;2022-12-29T07:40:27;10.20;1.00
12959;DHT22;6544;51.666;6.634;2022-12-29T07:42:54;10.20;11.00
12959;DHT22;6544;51.666;6.634;2022-12-29T07:45:21;10.10;3.90
12959;DHT22;6544;51.666;6.634;2022-12-29T07:47:48;10.20;1.00
12959;DHT22;6544;51.666;6.634;2022-12-29T07:50:15;10.20;1.00
12959;DHT22;6544;51.666;6.634;2022-12-29T07:52:43;10.20;1.00
12959;DHT22;6544;51.666;6.634;2022-12-29T07:55:12;10.20;1.00
12959;DHT22;6544;51.666;6.634;2022-12-29T07:57:39;10.20;1.00
12959;DHT22;6544;51.666;6.634;2022-12-29T08:00:07;10.10;1.00
12959;DHT22;6544;51.666;6.634;2022-12-29T08:02:35;10.10;1.00
12959;DHT22;6544;51.666;6.634;2022-12-29T08:05:02;10.10;1.00
12959;DHT22;6544;51.666;6.634;2022-12-29T08:07:29;10.20;1.00
12959;DHT22;6544;51.666;6.634;2022-12-29T08:09:57;10.20;1.00
12959;DHT22;6544;51.666;6.634;2022-12-29T08:12:24;10.30;1.00
12959;DHT22;6544;51.666;6.634;2022-12-29T08:14:51;10.30;1.00
12959;DHT22;6544;51.666;6.634;2022-12-29T08:17:21;10.30;99.90
12959;DHT22;6544;51.666;6.634;2022-12-29T08:19:48;10.30;99.90
12959;DHT22;6544;51.666;6.634;2022-12-29T08:22:15;10.40;99.90
12959;DHT22;6544;51.666;6.634;2022-12-29T08:24:45;10.30;99.90
12959;DHT22;6544;51.666;6.634;2022-12-29T08:27:14;10.40;99.90
12959;DHT22;6544;51.666;6.634;2022-12-29T08:29:40;10.30;99.90
12959;DHT22;6544;51.666;6.634;2022-12-29T08:32:07;10.40;99.90
12959;DHT22;6544;51.666;6.634;2022-12-29T08:34:34;10.40;99.90
12959;DHT22;6544;51.666;6.634;2022-12-29T08:37:01;10.40;99.90
12959;DHT22;6544;51.666;6.634;2022-12-29T08:39:28;10.40;99.90
12959;DHT22;6544;51.666;6.634;2022-12-29T08:41:55;10.40;99.90
12959;DHT22;6544;51.666;6.634;2022-12-29T08:44:23;10.40;99.90
12959;DHT22;6544;51.666;6.634;2022-12-29T08:46:50;10.50;99.90
12959;DHT22;6544;51.666;6.634;2022-12-29T08:49:17;10.50;99.90
12959;DHT22;6544;51.666;6.634;2022-12-29T08:51:44;10.50;99.90
12959;DHT22;6544;51.666;6.634;2022-12-29T08:54:11;10.60;99.90
12959;DHT22;6544;51.666;6.634;2022-12-29T08:56:38;10.60;99.90
12959;DHT22;6544;51.666;6.634;2022-12-29T08:59:05;10.60;99.90
12959;DHT22;6544;51.666;6.634;2022-12-29T09:01:33;10.60;99.90
12959;DHT22;6544;51.666;6.634;2022-12-29T09:04:02;10.70;99.90
12959;DHT22;6544;51.666;6.634;2022-12-29T09:06:29;10.70;99.90
12959;DHT22;6544;51.666;6.634;2022-12-29T09:08:56;10.70;99.90
12959;DHT22;6544;51.666;6.634;2022-12-29T09:11:24;10.70;99.90
12959;DHT22;6544;51.666;6.634;2022-12-29T09:13:52;10.70;99.90
12959;DHT22;6544;51.666;6.634;2022-12-29T09:16:21;10.70;99.90
12959;DHT22;6544;51.666;6.634;2022-12-29T09:18:50;10.70;99.90
12959;DHT22;6544;51.666;6.634;2022-12-29T09:21:17;10.80;99.90
12959;DHT22;6544;51.666;6.634;2022-12-29T09:23:44;10.70;99.90
12959;DHT22;6544;51.666;6.634;2022-12-29T09:26:11;10.80;99.90
12959;DHT22;6544;51.666;6.634;2022-12-29T09:28:38;10.80;99.90
12959;DHT22;6544;51.666;6.634;2022-12-29T09:31:05;10.80;99.90
12959;DHT22;6544;51.666;6.634;2022-12-29T09:33:32;10.80;99.90
12959;DHT22;6544;51.666;6.634;2022-12-29T09:36:01;10.80;99.90
12959;DHT22;6544;51.666;6.634;2022-12-29T09:38:29;10.80;99.90
12959;DHT22;6544;51.666;6.634;2022-12-29T09:40:59;10.80;99.90
12959;DHT22;6544;51.666;6.634;2022-12-29T09:43:49;10.90;99.90
12959;DHT22;6544;51.666;6.634;2022-12-29T09:46:23;11.00;99.90
12959;DHT22;6544;51.666;6.634;2022-12-29T09:48:55;11.00;99.90
12959;DHT22;6544;51.666;6.634;2022-12-29T09:51:27;11.00;99.90
12959;DHT22;6544;51.666;6.634;2022-12-29T09:53:57;11.10;99.90
12959;DHT22;6544;51.666;6.634;2022-12-29T09:56:25;11.10;99.90
12959;DHT22;6544;51.666;6.634;2022-12-29T09:58:57;11.10;99.90
12959;DHT22;6544;51.666;6.634;2022-12-29T10:01:30;11.10;99.90
12959;DHT22;6544;51.666;6.634;2022-12-29T10:03:58;11.10;99.90
12959;DHT22;6544;51.666;6.634;2022-12-29T10:06:33;11.10;99.90
12959;DHT22;6544;51.666;6.634;2022-12-29T10:09:11;11.20;99.90
12959;DHT22;6544;51.666;6.634;2022-12-29T10:11:54;11.10;99.90
12959;DHT22;6544;51.666;6.634;2022-12-29T10:14:33;11.10;99.90
12959;DHT22;6544;51.666;6.634;2022-12-29T10:17:11;11.10;99.90
12959;DHT22;6544;51.666;6.634;2022-12-29T10:19:55;11.20;99.90
12959;DHT22;6544;51.666;6.634;2022-12-29T10:22:36;11.30;99.90
12959;DHT22;6544;51.666;6.634;2022-12-29T10:25:13;11.30;99.90
12959;DHT22;6544;51.666;6.634;2022-12-29T10:27:42;11.40;99.90
12959;DHT22;6544;51.666;6.634;2022-12-29T10:30:12;11.50;99.90
12959;DHT22;6544;51.666;6.634;2022-12-29T10:32:41;11.60;99.90
12959;DHT22;6544;51.666;6.634;2022-12-29T10:35:14;11.60;99.90
12959;DHT22;6544;51.666;6.634;2022-12-29T10:37:46;11.60;50.50
12959;DHT22;6544;51.666;6.634;2022-12-29T10:40:19;11.60;80.40
12959;DHT22;6544;51.666;6.634;2022-12-29T10:42:52;11.60;77.50
12959;DHT22;6544;51.666;6.634;2022-12-29T10:45:21;11.60;44.60
12959;DHT22;6544;51.666;6.634;2022-12-29T10:47:54;11.70;25.40
12959;DHT22;6544;51.666;6.634;2022-12-29T10:50:23;11.60;58.40
12959;DHT22;6544;51.666;6.634;2022-12-29T10:52:52;11.70;41.50
12959;DHT22;6544;51.666;6.634;2022-12-29T10:55:23;11.70;16.30
12959;DHT22;6544;51.666;6.634;2022-12-29T10:57:54;11.70;36.50
12959;DHT22;6544;51.666;6.634;2022-12-29T11:00:23;11.70;43.80
12959;DHT22;6544;51.666;6.634;2022-12-29T11:03:21;11.70;36.50
12959;DHT22;6544;51.666;6.634;2022-12-29T11:05:56;11.70;30.80
12959;DHT22;6544;51.666;6.634;2022-12-29T11:08:30;11.70;48.10
12959;DHT22;6544;51.666;6.634;2022-12-29T11:10:59;11.70;92.60
12959;DHT22;6544;51.666;6.634;2022-12-29T11:13:28;11.60;94.00
12959;DHT22;6544;51.666;6.634;2022-12-29T11:15:55;11.50;99.90
12959;DHT22;6544;51.666;6.634;2022-12-29T11:18:24;11.50;99.90
12959;DHT22;6544;51.666;6.634;2022-12-29T11:20:53;11.50;99.90
12959;DHT22;6544;51.666;6.634;2022-12-29T11:23:23;11.50;99.90
12959;DHT22;6544;51.666;6.634;2022-12-29T11:26:07;11.40;99.90
12959;DHT22;6544;51.666;6.634;2022-12-29T11:28:35;11.40;99.90
12959;DHT22;6544;51.666;6.634;2022-12-29T11:31:04;11.40;99.90
12959;DHT22;6544;51.666;6.634;2022-12-29T11:33:33;11.30;99.90
12959;DHT22;6544;51.666;6.634;2022-12-29T11:36:04;11.30;99.90
12959;DHT22;6544;51.666;6.634;2022-12-29T11:38:35;11.30;99.90
12959;DHT22;6544;51.666;6.634;2022-12-29T11:41:04;11.30;99.90
12959;DHT22;6544;51.666;6.634;2022-12-29T11:43:36;11.30;99.90
12959;DHT22;6544;51.666;6.634;2022-12-29T11:46:04;11.30;99.90
12959;DHT22;6544;51.666;6.634;2022-12-29T11:48:37;11.30;99.90
12959;DHT22;6544;51.666;6.634;2022-12-29T11:51:06;11.40;99.90
12959;DHT22;6544;51.666;6.634;2022-12-29T11:53:38;11.30;99.90
12959;DHT22;6544;51.666;6.634;2022-12-29T11:56:10;11.40;99.90
12959;DHT22;6544;51.666;6.634;2022-12-29T11:58:38;11.40;99.90
12959;DHT22;6544;51.666;6.634;2022-12-29T12:01:10;11.40;99.90
12959;DHT22;6544;51.666;6.634;2022-12-29T12:03:46;11.40;99.90
12959;DHT22;6544;51.666;6.634;2022-12-29T12:06:17;11.30;99.90
12959;DHT22;6544;51.666;6.634;2022-12-29T12:08:54;11.30;99.90
12959;DHT22;6544;51.666;6.634;2022-12-29T12:11:26;11.40;99.90
12959;DHT22;6544;51.666;6.634;2022-12-29T12:14:02;11.40;99.90
12959;DHT22;6544;51.666;6.634;2022-12-29T12:16:34;11.30;99.90
12959;DHT22;6544;51.666;6.634;2022-12-29T12:19:09;11.30;99.90
12959;DHT22;6544;51.666;6.634;2022-12-29T12:21:41;11.40;99.90
12959;DHT22;6544;51.666;6.634;2022-12-29T12:24:25;11.40;99.90
12959;DHT22;6544;51.666;6.634;2022-12-29T12:27:02;11.30;99.90
12959;DHT22;6544;51.666;6.634;2022-12-29T12:29:38;11.30;99.90
12959;DHT22;6544;51.666;6.634;2022-12-29T12:32:14;11.40;99.90
12959;DHT22;6544;51.666;6.634;2022-12-29T12:34:43;11.40;99.90
12959;DHT22;6544;51.666;6.634;2022-12-29T12:40:28;11.40;99.90
12959;DHT22;6544;51.666;6.634;2022-12-29T12:43:09;11.40;99.90
12959;DHT22;6544;51.666;6.634;2022-12-29T12:45:46;11.40;99.90
12959;DHT22;6544;51.666;6.634;2022-12-29T12:48:30;11.40;99.90
12959;DHT22;6544;51.666;6.634;2022-12-29T12:51:10;11.40;99.90
12959;DHT22;6544;51.666;6.634;2022-12-29T12:53:59;11.40;99.90
12959;DHT22;6544;51.666;6.634;2022-12-29T12:56:44;11.40;99.90
12959;DHT22;6544;51.666;6.634;2022-12-29T12:59:28;11.40;99.90
12959;DHT22;6544;51.666;6.634;2022-12-29T13:02:01;11.40;99.90
12959;DHT22;6544;51.666;6.634;2022-12-29T13:04:50;11.40;99.90
12959;DHT22;6544;51.666;6.634;2022-12-29T13:07:28;11.40;99.90
12959;DHT22;6544;51.666;6.634;2022-12-29T13:10:15;11.40;99.90
12959;DHT22;6544;51.666;6.634;2022-12-29T13:12:48;11.40;99.90
12959;DHT22;6544;51.666;6.634;2022-12-29T13:15:29;11.30;99.90
12959;DHT22;6544;51.666;6.634;2022-12-29T13:18:06;11.40;99.90
12959;DHT22;6544;51.666;6.634;2022-12-29T13:20:41;11.40;99.90
12959;DHT22;6544;51.666;6.634;2022-12-29T13:23:18;11.40;99.90
12959;DHT22;6544;51.666;6.634;2022-12-29T13:25:52;11.40;99.90
12959;DHT22;6544;51.666;6.634;2022-12-29T13:28:28;11.40;99.90
12959;DHT22;6544;51.666;6.634;2022-12-29T13:31:00;11.50;95.10
12959;DHT22;6544;51.666;6.634;2022-12-29T13:33:37;11.40;98.50
12959;DHT22;6544;51.666;6.634;2022-12-29T13:36:12;11.50;94.50
12959;DHT22;6544;51.666;6.634;2022-12-29T13:38:43;11.40;96.70
12959;DHT22;6544;51.666;6.634;2022-12-29T13:41:16;11.40;83.00
12959;DHT22;6544;51.666;6.634;2022-12-29T13:43:46;11.40;58.50
12959;DHT22;6544;51.666;6.634;2022-12-29T13:46:20;11.40;72.50
12959;DHT22;6544;51.666;6.634;2022-12-29T13:48:51;11.50;51.80
12959;DHT22;6544;51.666;6.634;2022-12-29T13:51:19;11.50;23.10
12959;DHT22;6544;51.666;6.634;2022-12-29T13:54:01;11.50;53.40
12959;DHT22;6544;51.666;6.634;2022-12-29T13:56:34;11.50;38.80
12959;DHT22;6544;51.666;6.634;2022-12-29T13:59:13;11.40;40.50
12959;DHT22;6544;51.666;6.634;2022-12-29T14:01:48;11.40;64.40
12959;DHT22;6544;51.666;6.634;2022-12-29T14:04:23;11.40;85.30
12959;DHT22;6544;51.666;6.634;2022-12-29T14:07:00;11.30;78.50
12959;DHT22;6544;51.666;6.634;2022-12-29T14:09:42;11.30;57.80
12959;DHT22;6544;51.666;6.634;2022-12-29T14:12:31;11.30;89.70
12959;DHT22;6544;51.666;6.634;2022-12-29T14:15:20;11.30;73.30
12959;DHT22;6544;51.666;6.634;2022-12-29T14:18:10;11.20;94.50
12959;DHT22;6544;51.666;6.634;2022-12-29T14:20:40;11.20;99.90
12959;DHT22;6544;51.666;6.634;2022-12-29T14:23:25;11.20;99.90
12959;DHT22;6544;51.666;6.634;2022-12-29T14:25:58;11.20;99.90
12959;DHT22;6544;51.666;6.634;2022-12-29T14:28:26;11.20;99.90
12959;DHT22;6544;51.666;6.634;2022-12-29T14:30:55;11.20;99.90
12959;DHT22;6544;51.666;6.634;2022-12-29T14:33:28;11.10;99.90
12959;DHT22;6544;51.666;6.634;2022-12-29T14:35:56;11.10;99.90
12959;DHT22;6544;51.666;6.634;2022-12-29T14:38:27;11.10;99.90
12959;DHT22;6544;51.666;6.634;2022-12-29T14:41:15;11.00;99.90
12959;DHT22;6544;51.666;6.634;2022-12-29T14:43:52;11.00;99.90
12959;DHT22;6544;51.666;6.634;2022-12-29T14:46:20;11.00;99.90
12959;DHT22;6544;51.666;6.634;2022-12-29T14:48:55;11.00;99.90
12959;DHT22;6544;51.666;6.634;2022-12-29T14:51:32;10.90;99.90
12959;DHT22;6544;51.666;6.634;2022-12-29T14:57:08;10.90;99.90
12959;DHT22;6544;51.666;6.634;2022-12-29T14:59:37;10.80;99.90
12959;DHT22;6544;51.666;6.634;2022-12-29T15:02:14;10.70;1.00
12959;DHT22;6544;51.666;6.634;2022-12-29T15:04:44;10.50;1.00
12959;DHT22;6544;51.666;6.634;2022-12-29T15:07:12;10.40;1.00
12959;DHT22;6544;51.666;6.634;2022-12-29T15:09:42;10.10;1.00
12959;DHT22;6544;51.666;6.634;2022-12-29T15:12:20;10.20;1.00
12959;DHT22;6544;51.666;6.634;2022-12-29T15:14:50;10.30;1.00
12959;DHT22;6544;51.666;6.634;2022-12-29T15:17:24;10.30;1.00
12959;DHT22;6544;51.666;6.634;2022-12-29T15:19:54;10.20;1.00
12959;DHT22;6544;51.666;6.634;2022-12-29T15:22:21;10.30;1.00
12959;DHT22;6544;51.666;6.634;2022-12-29T15:24:50;10.20;1.00
12959;DHT22;6544;51.666;6.634;2022-12-29T15:27:20;10.30;1.00
12959;DHT22;6544;51.666;6.634;2022-12-29T15:29:48;10.30;1.00
12959;DHT22;6544;51.666;6.634;2022-12-29T15:32:24;10.30;1.00
12959;DHT22;6544;51.666;6.634;2022-12-29T15:34:54;10.30;1.00
12959;DHT22;6544;51.666;6.634;2022-12-29T15:37:24;10.30;1.00
12959;DHT22;6544;51.666;6.634;2022-12-29T15:39:52;10.40;1.00
12959;DHT22;6544;51.666;6.634;2022-12-29T15:42:47;10.40;1.00
12959;DHT22;6544;51.666;6.634;2022-12-29T15:45:15;10.30;1.00
12959;DHT22;6544;51.666;6.634;2022-12-29T15:47:44;10.30;1.00
12959;DHT22;6544;51.666;6.634;2022-12-29T15:50:22;10.30;1.00
12959;DHT22;6544;51.666;6.634;2022-12-29T15:52:49;10.30;1.00
12959;DHT22;6544;51.666;6.634;2022-12-29T15:55:20;10.20;1.00
12959;DHT22;6544;51.666;6.634;2022-12-29T15:57:48;10.20;99.90
12959;DHT22;6544;51.666;6.634;2022-12-29T16:00:23;10.20;99.90
12959;DHT22;6544;51.666;6.634;2022-12-29T16:02:52;10.10;99.90
12959;DHT22;6544;51.666;6.634;2022-12-29T16:05:21;10.20;99.90
12959;DHT22;6544;51.666;6.634;2022-12-29T16:07:53;10.20;99.90
12959;DHT22;6544;51.666;6.634;2022-12-29T16:10:30;10.20;99.90
12959;DHT22;6544;51.666;6.634;2022-12-29T16:13:03;10.20;99.90
12959;DHT22;6544;51.666;6.634;2022-12-29T16:15:31;10.10;99.90
12959;DHT22;6544;51.666;6.634;2022-12-29T16:17:58;10.10;99.90
12959;DHT22;6544;51.666;6.634;2022-12-29T16:20:37;10.10;99.90
12959;DHT22;6544;51.666;6.634;2022-12-29T16:23:09;10.10;99.90
12959;DHT22;6544;51.666;6.634;2022-12-29T16:25:41;10.10;99.90
12959;DHT22;6544;51.666;6.634;2022-12-29T16:28:17;10.10;99.90